sensor_id;sensor_type;location;lat;lon;timestamp;P1;durP1;ratioP1;P2;durP2;ratioP2
9409;SDS011;4744;52.576;13.568;2022-10-12T00:00:04;3.85;;;3.25;;
9409;SDS011;4744;52.576;13.568;2022-10-12T00:02:32;4.97;;;2.80;;
9409;SDS011;4744;52.576;13.568;2022-10-12T00:04:59;5.50;;;3.40;;
9409;SDS011;4744;52.576;13.568;2022-10-12T00:07:25;5.03;;;2.92;;
9409;SDS011;4744;52.576;13.568;2022-10-12T00:09:52;4.50;;;3.40;;
9409;SDS011;4744;52.576;13.568;2022-10-12T00:12:19;3.53;;;2.88;;
9409;SDS011;4744;52.576;13.568;2022-10-12T00:14:47;6.47;;;3.28;;
9409;SDS011;4744;52.576;13.568;2022-10-12T00:17:14;3.28;;;2.83;;
9409;SDS011;4744;52.576;13.568;2022-10-12T00:19:41;4.68;;;3.53;;
9409;SDS011;4744;52.576;13.568;2022-10-12T00:22:07;4.80;;;3.38;;
9409;SDS011;4744;52.576;13.568;2022-10-12T00:24:34;4.53;;;2.70;;
9409;SDS011;4744;52.576;13.568;2022-10-12T00:27:01;5.18;;;3.15;;
9409;SDS011;4744;52.576;13.568;2022-10-12T00:29:28;4.72;;;3.20;;
9409;SDS011;4744;52.576;13.568;2022-10-12T00:31:56;6.45;;;3.55;;
9409;SDS011;4744;52.576;13.568;2022-10-12T00:34:23;4.03;;;3.25;;
9409;SDS011;4744;52.576;13.568;2022-10-12T00:36:50;5.07;;;3.03;;
9409;SDS011;4744;52.576;13.568;2022-10-12T00:39:16;5.57;;;3.05;;
9409;SDS011;4744;52.576;13.568;2022-10-12T00:41:43;5.35;;;3.00;;
9409;SDS011;4744;52.576;13.568;2022-10-12T00:47:01;6.90;;;3.35;;
9409;SDS011;4744;52.576;13.568;2022-10-12T00:49:32;5.10;;;3.13;;
9409;SDS011;4744;52.576;13.568;2022-10-12T00:52:02;4.50;;;3.30;;
9409;SDS011;4744;52.576;13.568;2022-10-12T00:54:35;5.15;;;2.78;;
9409;SDS011;4744;52.576;13.568;2022-10-12T00:57:05;6.55;;;3.58;;
9409;SDS011;4744;52.576;13.568;2022-10-12T00:59:35;5.45;;;3.42;;
9409;SDS011;4744;52.576;13.568;2022-10-12T01:02:06;5.10;;;3.78;;
9409;SDS011;4744;52.576;13.568;2022-10-12T01:04:33;5.45;;;3.78;;
9409;SDS011;4744;52.576;13.568;2022-10-12T01:07:01;3.92;;;3.50;;
9409;SDS011;4744;52.576;13.568;2022-10-12T01:09:28;4.72;;;3.80;;
9409;SDS011;4744;52.576;13.568;2022-10-12T01:11:55;4.72;;;3.45;;
9409;SDS011;4744;52.576;13.568;2022-10-12T01:14:23;4.25;;;3.10;;
9409;SDS011;4744;52.576;13.568;2022-10-12T01:16:51;4.47;;;3.50;;
9409;SDS011;4744;52.576;13.568;2022-10-12T01:19:28;6.60;;;3.70;;
9409;SDS011;4744;52.576;13.568;2022-10-12T01:22:19;3.90;;;3.05;;
9409;SDS011;4744;52.576;13.568;2022-10-12T01:24:49;4.75;;;3.38;;
9409;SDS011;4744;52.576;13.568;2022-10-12T01:27:26;6.78;;;3.75;;
9409;SDS011;4744;52.576;13.568;2022-10-12T01:30:10;4.75;;;3.47;;
9409;SDS011;4744;52.576;13.568;2022-10-12T01:33:01;5.88;;;3.22;;
9409;SDS011;4744;52.576;13.568;2022-10-12T01:35:45;5.03;;;3.17;;
9409;SDS011;4744;52.576;13.568;2022-10-12T01:38:20;5.97;;;3.70;;
9409;SDS011;4744;52.576;13.568;2022-10-12T01:41:02;5.43;;;3.35;;
9409;SDS011;4744;52.576;13.568;2022-10-12T01:43:34;4.82;;;3.40;;
9409;SDS011;4744;52.576;13.568;2022-10-12T01:46:05;5.30;;;3.58;;
9409;SDS011;4744;52.576;13.568;2022-10-12T01:48:53;3.92;;;3.17;;
9409;SDS011;4744;52.576;13.568;2022-10-12T01:51:24;5.80;;;3.40;;
9409;SDS011;4744;52.576;13.568;2022-10-12T01:53:58;7.57;;;3.78;;
9409;SDS011;4744;52.576;13.568;2022-10-12T01:56:38;3.72;;;2.90;;
9409;SDS011;4744;52.576;13.568;2022-10-12T01:59:13;6.93;;;3.60;;
9409;SDS011;4744;52.576;13.568;2022-10-12T02:01:47;4.78;;;3.33;;
9409;SDS011;4744;52.576;13.568;2022-10-12T02:04:23;5.00;;;3.45;;
9409;SDS011;4744;52.576;13.568;2022-10-12T02:06:55;4.85;;;3.72;;
9409;SDS011;4744;52.576;13.568;2022-10-12T02:09:27;5.82;;;3.80;;
9409;SDS011;4744;52.576;13.568;2022-10-12T02:11:59;5.40;;;3.50;;
9409;SDS011;4744;52.576;13.568;2022-10-12T02:14:30;4.32;;;3.38;;
9409;SDS011;4744;52.576;13.568;2022-10-12T02:17:02;7.15;;;3.75;;
9409;SDS011;4744;52.576;13.568;2022-10-12T02:19:34;5.18;;;3.72;;
9409;SDS011;4744;52.576;13.568;2022-10-12T02:22:05;6.18;;;3.80;;
9409;SDS011;4744;52.576;13.568;2022-10-12T02:24:34;5.88;;;3.60;;
9409;SDS011;4744;52.576;13.568;2022-10-12T02:27:03;5.70;;;3.80;;
9409;SDS011;4744;52.576;13.568;2022-10-12T02:29:32;5.20;;;4.57;;
9409;SDS011;4744;52.576;13.568;2022-10-12T02:32:05;8.52;;;4.28;;
9409;SDS011;4744;52.576;13.568;2022-10-12T02:34:41;7.07;;;4.07;;
9409;SDS011;4744;52.576;13.568;2022-10-12T02:37:12;7.03;;;4.43;;
9409;SDS011;4744;52.576;13.568;2022-10-12T02:39:51;6.57;;;4.28;;
9409;SDS011;4744;52.576;13.568;2022-10-12T02:42:20;6.40;;;3.58;;
9409;SDS011;4744;52.576;13.568;2022-10-12T02:44:51;5.45;;;3.85;;
9409;SDS011;4744;52.576;13.568;2022-10-12T02:47:21;4.43;;;3.38;;
9409;SDS011;4744;52.576;13.568;2022-10-12T02:49:51;7.50;;;4.15;;
9409;SDS011;4744;52.576;13.568;2022-10-12T02:52:19;4.50;;;3.88;;
9409;SDS011;4744;52.576;13.568;2022-10-12T02:54:47;6.55;;;3.88;;
9409;SDS011;4744;52.576;13.568;2022-10-12T02:57:14;5.68;;;3.70;;
9409;SDS011;4744;52.576;13.568;2022-10-12T02:59:41;5.53;;;3.97;;
9409;SDS011;4744;52.576;13.568;2022-10-12T03:02:08;6.80;;;4.00;;
9409;SDS011;4744;52.576;13.568;2022-10-12T03:04:36;5.72;;;3.67;;
9409;SDS011;4744;52.576;13.568;2022-10-12T03:07:03;5.43;;;3.80;;
9409;SDS011;4744;52.576;13.568;2022-10-12T03:09:30;9.07;;;4.13;;
9409;SDS011;4744;52.576;13.568;2022-10-12T03:11:57;5.28;;;4.30;;
9409;SDS011;4744;52.576;13.568;2022-10-12T03:14:23;5.65;;;4.35;;
9409;SDS011;4744;52.576;13.568;2022-10-12T03:16:51;7.90;;;5.00;;
9409;SDS011;4744;52.576;13.568;2022-10-12T03:19:18;8.80;;;4.75;;
9409;SDS011;4744;52.576;13.568;2022-10-12T03:21:46;6.85;;;4.15;;
9409;SDS011;4744;52.576;13.568;2022-10-12T03:24:13;9.27;;;4.80;;
9409;SDS011;4744;52.576;13.568;2022-10-12T03:26:40;6.75;;;4.70;;
9409;SDS011;4744;52.576;13.568;2022-10-12T03:29:06;5.65;;;4.65;;
9409;SDS011;4744;52.576;13.568;2022-10-12T03:31:34;4.88;;;4.30;;
9409;SDS011;4744;52.576;13.568;2022-10-12T03:34:01;6.75;;;4.95;;
9409;SDS011;4744;52.576;13.568;2022-10-12T03:36:28;7.45;;;5.18;;
9409;SDS011;4744;52.576;13.568;2022-10-12T03:38:56;7.40;;;4.68;;
9409;SDS011;4744;52.576;13.568;2022-10-12T03:41:22;5.72;;;4.13;;
9409;SDS011;4744;52.576;13.568;2022-10-12T03:43:49;5.70;;;4.40;;
9409;SDS011;4744;52.576;13.568;2022-10-12T03:46:16;7.22;;;4.78;;
9409;SDS011;4744;52.576;13.568;2022-10-12T03:48:43;5.97;;;4.40;;
9409;SDS011;4744;52.576;13.568;2022-10-12T03:51:11;5.60;;;4.30;;
9409;SDS011;4744;52.576;13.568;2022-10-12T03:53:37;6.63;;;5.20;;
9409;SDS011;4744;52.576;13.568;2022-10-12T03:56:06;5.97;;;5.03;;
9409;SDS011;4744;52.576;13.568;2022-10-12T03:58:32;7.28;;;4.63;;
9409;SDS011;4744;52.576;13.568;2022-10-12T04:00:59;6.22;;;4.57;;
9409;SDS011;4744;52.576;13.568;2022-10-12T04:03:26;5.30;;;4.25;;
9409;SDS011;4744;52.576;13.568;2022-10-12T04:05:53;5.95;;;4.32;;
9409;SDS011;4744;52.576;13.568;2022-10-12T04:08:20;7.70;;;4.90;;
9409;SDS011;4744;52.576;13.568;2022-10-12T04:10:47;5.55;;;4.85;;
9409;SDS011;4744;52.576;13.568;2022-10-12T04:13:16;5.72;;;4.47;;
9409;SDS011;4744;52.576;13.568;2022-10-12T04:15:44;5.93;;;4.32;;
9409;SDS011;4744;52.576;13.568;2022-10-12T04:18:11;6.55;;;4.70;;
9409;SDS011;4744;52.576;13.568;2022-10-12T04:20:38;7.03;;;4.95;;
9409;SDS011;4744;52.576;13.568;2022-10-12T04:23:05;5.88;;;5.15;;
9409;SDS011;4744;52.576;13.568;2022-10-12T04:25:31;6.72;;;4.47;;
9409;SDS011;4744;52.576;13.568;2022-10-12T04:27:58;6.57;;;5.07;;
9409;SDS011;4744;52.576;13.568;2022-10-12T04:30:26;7.18;;;4.65;;
9409;SDS011;4744;52.576;13.568;2022-10-12T04:32:53;7.80;;;4.60;;
9409;SDS011;4744;52.576;13.568;2022-10-12T04:35:20;7.82;;;5.00;;
9409;SDS011;4744;52.576;13.568;2022-10-12T04:37:47;7.03;;;5.40;;
9409;SDS011;4744;52.576;13.568;2022-10-12T04:40:14;5.15;;;4.53;;
9409;SDS011;4744;52.576;13.568;2022-10-12T04:42:41;6.35;;;5.28;;
9409;SDS011;4744;52.576;13.568;2022-10-12T04:45:08;8.60;;;4.72;;
9409;SDS011;4744;52.576;13.568;2022-10-12T04:47:36;7.10;;;5.05;;
9409;SDS011;4744;52.576;13.568;2022-10-12T04:50:03;5.35;;;4.50;;
9409;SDS011;4744;52.576;13.568;2022-10-12T04:52:31;5.50;;;4.25;;
9409;SDS011;4744;52.576;13.568;2022-10-12T04:54:58;5.30;;;4.30;;
9409;SDS011;4744;52.576;13.568;2022-10-12T04:57:25;5.40;;;4.30;;
9409;SDS011;4744;52.576;13.568;2022-10-12T04:59:52;5.30;;;4.47;;
9409;SDS011;4744;52.576;13.568;2022-10-12T05:02:19;5.53;;;4.30;;
9409;SDS011;4744;52.576;13.568;2022-10-12T05:04:47;4.85;;;4.30;;
9409;SDS011;4744;52.576;13.568;2022-10-12T05:07:14;5.18;;;4.22;;
9409;SDS011;4744;52.576;13.568;2022-10-12T05:09:41;7.07;;;4.40;;
9409;SDS011;4744;52.576;13.568;2022-10-12T05:12:07;6.15;;;4.45;;
9409;SDS011;4744;52.576;13.568;2022-10-12T05:14:34;5.03;;;4.25;;
9409;SDS011;4744;52.576;13.568;2022-10-12T05:17:01;6.05;;;4.45;;
9409;SDS011;4744;52.576;13.568;2022-10-12T05:19:28;5.13;;;4.63;;
9409;SDS011;4744;52.576;13.568;2022-10-12T05:21:56;6.82;;;4.90;;
9409;SDS011;4744;52.576;13.568;2022-10-12T05:24:23;6.25;;;4.65;;
9409;SDS011;4744;52.576;13.568;2022-10-12T05:26:49;8.13;;;4.40;;
9409;SDS011;4744;52.576;13.568;2022-10-12T05:29:16;9.15;;;5.20;;
9409;SDS011;4744;52.576;13.568;2022-10-12T05:31:43;6.53;;;4.85;;
9409;SDS011;4744;52.576;13.568;2022-10-12T05:34:10;4.63;;;4.15;;
9409;SDS011;4744;52.576;13.568;2022-10-12T05:36:37;6.35;;;4.57;;
9409;SDS011;4744;52.576;13.568;2022-10-12T05:39:05;8.13;;;5.15;;
9409;SDS011;4744;52.576;13.568;2022-10-12T05:41:32;11.80;;;5.43;;
9409;SDS011;4744;52.576;13.568;2022-10-12T05:43:58;6.95;;;5.00;;
9409;SDS011;4744;52.576;13.568;2022-10-12T05:46:25;7.68;;;4.72;;
9409;SDS011;4744;52.576;13.568;2022-10-12T05:48:52;6.82;;;4.80;;
9409;SDS011;4744;52.576;13.568;2022-10-12T05:51:19;7.05;;;4.78;;
9409;SDS011;4744;52.576;13.568;2022-10-12T05:53:45;7.47;;;4.72;;
9409;SDS011;4744;52.576;13.568;2022-10-12T05:56:13;7.00;;;4.55;;
9409;SDS011;4744;52.576;13.568;2022-10-12T05:58:40;6.60;;;4.82;;
9409;SDS011;4744;52.576;13.568;2022-10-12T06:01:07;5.85;;;4.18;;
9409;SDS011;4744;52.576;13.568;2022-10-12T06:03:36;7.95;;;4.68;;
9409;SDS011;4744;52.576;13.568;2022-10-12T06:06:03;8.32;;;4.68;;
9409;SDS011;4744;52.576;13.568;2022-10-12T06:08:31;8.00;;;5.05;;
9409;SDS011;4744;52.576;13.568;2022-10-12T06:10:59;6.50;;;4.53;;
9409;SDS011;4744;52.576;13.568;2022-10-12T06:13:27;8.30;;;4.53;;
9409;SDS011;4744;52.576;13.568;2022-10-12T06:15:54;5.55;;;4.82;;
9409;SDS011;4744;52.576;13.568;2022-10-12T06:18:21;7.20;;;4.70;;
9409;SDS011;4744;52.576;13.568;2022-10-12T06:20:48;10.20;;;5.00;;
9409;SDS011;4744;52.576;13.568;2022-10-12T06:23:16;7.70;;;5.32;;
9409;SDS011;4744;52.576;13.568;2022-10-12T06:25:44;6.43;;;4.70;;
9409;SDS011;4744;52.576;13.568;2022-10-12T06:28:11;4.70;;;4.30;;
9409;SDS011;4744;52.576;13.568;2022-10-12T06:30:39;6.28;;;4.82;;
9409;SDS011;4744;52.576;13.568;2022-10-12T06:33:06;5.53;;;4.53;;
9409;SDS011;4744;52.576;13.568;2022-10-12T06:35:33;4.80;;;4.40;;
9409;SDS011;4744;52.576;13.568;2022-10-12T06:38:00;5.80;;;5.03;;
9409;SDS011;4744;52.576;13.568;2022-10-12T06:40:26;8.38;;;5.05;;
9409;SDS011;4744;52.576;13.568;2022-10-12T06:42:53;6.88;;;4.80;;
9409;SDS011;4744;52.576;13.568;2022-10-12T06:45:20;6.40;;;5.63;;
9409;SDS011;4744;52.576;13.568;2022-10-12T06:47:48;5.35;;;4.85;;
9409;SDS011;4744;52.576;13.568;2022-10-12T06:50:15;4.88;;;4.38;;
9409;SDS011;4744;52.576;13.568;2022-10-12T06:52:42;7.13;;;5.72;;
9409;SDS011;4744;52.576;13.568;2022-10-12T06:55:09;8.10;;;6.15;;
9409;SDS011;4744;52.576;13.568;2022-10-12T06:57:36;7.82;;;5.60;;
9409;SDS011;4744;52.576;13.568;2022-10-12T07:00:04;8.35;;;6.18;;
9409;SDS011;4744;52.576;13.568;2022-10-12T07:02:33;8.15;;;5.80;;
9409;SDS011;4744;52.576;13.568;2022-10-12T07:05:02;8.90;;;6.10;;
9409;SDS011;4744;52.576;13.568;2022-10-12T07:07:30;10.98;;;6.10;;
9409;SDS011;4744;52.576;13.568;2022-10-12T07:09:57;6.65;;;5.70;;
9409;SDS011;4744;52.576;13.568;2022-10-12T07:12:24;8.18;;;5.82;;
9409;SDS011;4744;52.576;13.568;2022-10-12T07:14:51;10.55;;;5.80;;
9409;SDS011;4744;52.576;13.568;2022-10-12T07:17:18;8.27;;;5.57;;
9409;SDS011;4744;52.576;13.568;2022-10-12T07:19:46;6.53;;;5.47;;
9409;SDS011;4744;52.576;13.568;2022-10-12T07:22:14;11.20;;;5.80;;
9409;SDS011;4744;52.576;13.568;2022-10-12T07:24:40;6.55;;;5.07;;
9409;SDS011;4744;52.576;13.568;2022-10-12T07:27:08;8.13;;;5.68;;
9409;SDS011;4744;52.576;13.568;2022-10-12T07:29:36;6.07;;;5.30;;
9409;SDS011;4744;52.576;13.568;2022-10-12T07:32:04;6.60;;;4.82;;
9409;SDS011;4744;52.576;13.568;2022-10-12T07:34:31;7.45;;;5.35;;
9409;SDS011;4744;52.576;13.568;2022-10-12T07:36:58;8.02;;;5.78;;
9409;SDS011;4744;52.576;13.568;2022-10-12T07:39:26;9.07;;;5.63;;
9409;SDS011;4744;52.576;13.568;2022-10-12T07:41:53;6.20;;;5.35;;
9409;SDS011;4744;52.576;13.568;2022-10-12T07:44:20;6.80;;;5.38;;
9409;SDS011;4744;52.576;13.568;2022-10-12T07:46:48;12.50;;;5.40;;
9409;SDS011;4744;52.576;13.568;2022-10-12T07:49:15;12.95;;;5.70;;
9409;SDS011;4744;52.576;13.568;2022-10-12T07:51:42;7.78;;;5.70;;
9409;SDS011;4744;52.576;13.568;2022-10-12T07:54:10;8.20;;;5.40;;
9409;SDS011;4744;52.576;13.568;2022-10-12T07:56:38;8.30;;;5.03;;
9409;SDS011;4744;52.576;13.568;2022-10-12T07:59:05;6.93;;;4.97;;
9409;SDS011;4744;52.576;13.568;2022-10-12T08:01:32;5.72;;;4.82;;
9409;SDS011;4744;52.576;13.568;2022-10-12T08:03:59;9.57;;;5.20;;
9409;SDS011;4744;52.576;13.568;2022-10-12T08:06:27;8.45;;;5.05;;
9409;SDS011;4744;52.576;13.568;2022-10-12T08:08:56;9.73;;;5.28;;
9409;SDS011;4744;52.576;13.568;2022-10-12T08:11:23;7.63;;;4.80;;
9409;SDS011;4744;52.576;13.568;2022-10-12T08:13:51;8.75;;;5.93;;
9409;SDS011;4744;52.576;13.568;2022-10-12T08:16:19;7.53;;;5.25;;
9409;SDS011;4744;52.576;13.568;2022-10-12T08:18:47;9.82;;;5.95;;
9409;SDS011;4744;52.576;13.568;2022-10-12T08:21:14;8.10;;;5.53;;
9409;SDS011;4744;52.576;13.568;2022-10-12T08:23:41;7.28;;;5.55;;
9409;SDS011;4744;52.576;13.568;2022-10-12T08:26:09;8.95;;;5.25;;
9409;SDS011;4744;52.576;13.568;2022-10-12T08:28:37;8.95;;;5.60;;
9409;SDS011;4744;52.576;13.568;2022-10-12T08:31:09;8.82;;;5.53;;
9409;SDS011;4744;52.576;13.568;2022-10-12T08:33:37;8.52;;;5.00;;
9409;SDS011;4744;52.576;13.568;2022-10-12T08:36:04;7.05;;;4.50;;
9409;SDS011;4744;52.576;13.568;2022-10-12T08:38:32;7.40;;;5.15;;
9409;SDS011;4744;52.576;13.568;2022-10-12T08:41:03;6.55;;;5.00;;
9409;SDS011;4744;52.576;13.568;2022-10-12T08:43:41;6.63;;;4.00;;
9409;SDS011;4744;52.576;13.568;2022-10-12T08:46:18;8.18;;;4.22;;
9409;SDS011;4744;52.576;13.568;2022-10-12T08:48:47;6.68;;;4.70;;
9409;SDS011;4744;52.576;13.568;2022-10-12T08:51:21;7.53;;;4.30;;
9409;SDS011;4744;52.576;13.568;2022-10-12T08:53:53;5.20;;;4.28;;
9409;SDS011;4744;52.576;13.568;2022-10-12T08:56:24;5.13;;;4.07;;
9409;SDS011;4744;52.576;13.568;2022-10-12T08:58:51;5.18;;;3.42;;
9409;SDS011;4744;52.576;13.568;2022-10-12T09:01:22;5.65;;;3.83;;
9409;SDS011;4744;52.576;13.568;2022-10-12T09:03:58;4.57;;;3.58;;
9409;SDS011;4744;52.576;13.568;2022-10-12T09:06:42;7.55;;;3.55;;
9409;SDS011;4744;52.576;13.568;2022-10-12T09:09:23;7.13;;;3.53;;
9409;SDS011;4744;52.576;13.568;2022-10-12T09:12:08;6.25;;;3.83;;
9409;SDS011;4744;52.576;13.568;2022-10-12T09:14:52;7.68;;;3.88;;
9409;SDS011;4744;52.576;13.568;2022-10-12T09:17:27;8.20;;;4.15;;
9409;SDS011;4744;52.576;13.568;2022-10-12T09:20:03;6.75;;;4.20;;
9409;SDS011;4744;52.576;13.568;2022-10-12T09:22:35;8.88;;;4.30;;
9409;SDS011;4744;52.576;13.568;2022-10-12T09:25:04;9.50;;;4.72;;
9409;SDS011;4744;52.576;13.568;2022-10-12T09:27:36;11.85;;;4.47;;
9409;SDS011;4744;52.576;13.568;2022-10-12T09:30:05;9.80;;;4.47;;
9409;SDS011;4744;52.576;13.568;2022-10-12T09:32:51;5.82;;;4.10;;
9409;SDS011;4744;52.576;13.568;2022-10-12T09:35:39;7.38;;;4.28;;
9409;SDS011;4744;52.576;13.568;2022-10-12T09:38:08;9.13;;;3.92;;
9409;SDS011;4744;52.576;13.568;2022-10-12T09:40:36;7.63;;;3.92;;
9409;SDS011;4744;52.576;13.568;2022-10-12T09:43:04;6.70;;;3.50;;
9409;SDS011;4744;52.576;13.568;2022-10-12T09:45:33;10.88;;;4.05;;
9409;SDS011;4744;52.576;13.568;2022-10-12T09:48:09;7.20;;;3.53;;
9409;SDS011;4744;52.576;13.568;2022-10-12T09:50:49;6.50;;;2.28;;
9409;SDS011;4744;52.576;13.568;2022-10-12T09:53:24;7.25;;;2.45;;
9409;SDS011;4744;52.576;13.568;2022-10-12T09:55:56;5.88;;;2.60;;
9409;SDS011;4744;52.576;13.568;2022-10-12T09:58:29;4.82;;;1.73;;
9409;SDS011;4744;52.576;13.568;2022-10-12T10:01:10;6.00;;;2.33;;
9409;SDS011;4744;52.576;13.568;2022-10-12T10:03:49;5.60;;;2.08;;
9409;SDS011;4744;52.576;13.568;2022-10-12T10:06:31;6.45;;;1.88;;
9409;SDS011;4744;52.576;13.568;2022-10-12T10:08:58;3.97;;;2.00;;
9409;SDS011;4744;52.576;13.568;2022-10-12T10:11:26;4.80;;;2.30;;
9409;SDS011;4744;52.576;13.568;2022-10-12T10:13:55;4.22;;;2.03;;
9409;SDS011;4744;52.576;13.568;2022-10-12T10:16:24;7.20;;;2.95;;
9409;SDS011;4744;52.576;13.568;2022-10-12T10:18:59;4.88;;;1.98;;
9409;SDS011;4744;52.576;13.568;2022-10-12T10:21:28;5.65;;;2.40;;
9409;SDS011;4744;52.576;13.568;2022-10-12T10:23:58;4.85;;;1.80;;
9409;SDS011;4744;52.576;13.568;2022-10-12T10:26:26;6.00;;;2.17;;
9409;SDS011;4744;52.576;13.568;2022-10-12T10:28:56;5.22;;;1.98;;
9409;SDS011;4744;52.576;13.568;2022-10-12T10:31:40;5.47;;;2.10;;
9409;SDS011;4744;52.576;13.568;2022-10-12T10:34:15;4.30;;;1.77;;
9409;SDS011;4744;52.576;13.568;2022-10-12T10:36:46;5.55;;;1.65;;
9409;SDS011;4744;52.576;13.568;2022-10-12T10:39:16;6.13;;;1.90;;
9409;SDS011;4744;52.576;13.568;2022-10-12T10:41:47;5.57;;;2.00;;
9409;SDS011;4744;52.576;13.568;2022-10-12T10:47:02;9.02;;;1.98;;
9409;SDS011;4744;52.576;13.568;2022-10-12T10:49:36;6.03;;;1.88;;
9409;SDS011;4744;52.576;13.568;2022-10-12T10:52:05;3.97;;;1.83;;
9409;SDS011;4744;52.576;13.568;2022-10-12T10:54:44;6.45;;;1.90;;
9409;SDS011;4744;52.576;13.568;2022-10-12T10:57:12;5.50;;;1.67;;
9409;SDS011;4744;52.576;13.568;2022-10-12T10:59:44;4.28;;;1.55;;
9409;SDS011;4744;52.576;13.568;2022-10-12T11:02:16;3.42;;;1.50;;
9409;SDS011;4744;52.576;13.568;2022-10-12T11:04:50;3.88;;;1.77;;
9409;SDS011;4744;52.576;13.568;2022-10-12T11:07:23;5.13;;;2.00;;
9409;SDS011;4744;52.576;13.568;2022-10-12T11:09:55;5.25;;;1.92;;
9409;SDS011;4744;52.576;13.568;2022-10-12T11:12:25;6.30;;;1.70;;
9409;SDS011;4744;52.576;13.568;2022-10-12T11:14:58;6.63;;;1.98;;
9409;SDS011;4744;52.576;13.568;2022-10-12T11:17:32;4.88;;;2.20;;
9409;SDS011;4744;52.576;13.568;2022-10-12T11:23:02;5.47;;;1.75;;
9409;SDS011;4744;52.576;13.568;2022-10-12T11:25:35;4.35;;;1.70;;
9409;SDS011;4744;52.576;13.568;2022-10-12T11:28:09;3.70;;;1.55;;
9409;SDS011;4744;52.576;13.568;2022-10-12T11:30:40;4.70;;;1.63;;
9409;SDS011;4744;52.576;13.568;2022-10-12T11:33:11;3.33;;;1.80;;
9409;SDS011;4744;52.576;13.568;2022-10-12T11:35:44;4.55;;;1.80;;
9409;SDS011;4744;52.576;13.568;2022-10-12T11:38:13;1.77;;;1.17;;
9409;SDS011;4744;52.576;13.568;2022-10-12T11:40:47;3.67;;;1.60;;
9409;SDS011;4744;52.576;13.568;2022-10-12T11:43:18;3.47;;;1.70;;
9409;SDS011;4744;52.576;13.568;2022-10-12T11:45:48;3.08;;;1.50;;
9409;SDS011;4744;52.576;13.568;2022-10-12T11:48:19;4.93;;;1.63;;
9409;SDS011;4744;52.576;13.568;2022-10-12T11:50:50;3.75;;;1.73;;
9409;SDS011;4744;52.576;13.568;2022-10-12T11:53:18;2.38;;;1.27;;
9409;SDS011;4744;52.576;13.568;2022-10-12T11:55:54;3.95;;;1.40;;
9409;SDS011;4744;52.576;13.568;2022-10-12T11:58:30;4.32;;;1.65;;
9409;SDS011;4744;52.576;13.568;2022-10-12T12:01:17;3.97;;;1.50;;
9409;SDS011;4744;52.576;13.568;2022-10-12T12:04:27;2.95;;;1.30;;
9409;SDS011;4744;52.576;13.568;2022-10-12T12:07:01;4.47;;;2.08;;
9409;SDS011;4744;52.576;13.568;2022-10-12T12:09:31;4.70;;;1.80;;
9409;SDS011;4744;52.576;13.568;2022-10-12T12:12:07;6.40;;;1.85;;
9409;SDS011;4744;52.576;13.568;2022-10-12T12:14:49;4.25;;;1.65;;
9409;SDS011;4744;52.576;13.568;2022-10-12T12:17:31;4.45;;;1.80;;
9409;SDS011;4744;52.576;13.568;2022-10-12T12:19:59;4.22;;;1.40;;
9409;SDS011;4744;52.576;13.568;2022-10-12T12:22:29;5.85;;;1.70;;
9409;SDS011;4744;52.576;13.568;2022-10-12T12:25:14;4.97;;;1.60;;
9409;SDS011;4744;52.576;13.568;2022-10-12T12:27:49;2.95;;;1.60;;
9409;SDS011;4744;52.576;13.568;2022-10-12T12:30:22;4.82;;;1.70;;
9409;SDS011;4744;52.576;13.568;2022-10-12T12:32:53;6.50;;;1.83;;
9409;SDS011;4744;52.576;13.568;2022-10-12T12:35:23;4.32;;;1.63;;
9409;SDS011;4744;52.576;13.568;2022-10-12T12:38:04;4.28;;;1.42;;
9409;SDS011;4744;52.576;13.568;2022-10-12T12:40:41;3.72;;;1.27;;
9409;SDS011;4744;52.576;13.568;2022-10-12T12:46:20;5.13;;;1.85;;
9409;SDS011;4744;52.576;13.568;2022-10-12T12:48:59;4.28;;;1.50;;
9409;SDS011;4744;52.576;13.568;2022-10-12T12:51:32;7.18;;;1.73;;
9409;SDS011;4744;52.576;13.568;2022-10-12T12:54:04;4.45;;;1.50;;
9409;SDS011;4744;52.576;13.568;2022-10-12T12:56:39;3.65;;;1.52;;
9409;SDS011;4744;52.576;13.568;2022-10-12T12:59:30;3.83;;;1.83;;
9409;SDS011;4744;52.576;13.568;2022-10-12T13:02:18;3.35;;;1.60;;
9409;SDS011;4744;52.576;13.568;2022-10-12T13:08:13;5.18;;;1.48;;
9409;SDS011;4744;52.576;13.568;2022-10-12T13:10:54;3.08;;;1.17;;
9409;SDS011;4744;52.576;13.568;2022-10-12T13:13:41;4.22;;;1.45;;
9409;SDS011;4744;52.576;13.568;2022-10-12T13:16:28;7.18;;;1.77;;
9409;SDS011;4744;52.576;13.568;2022-10-12T13:19:13;3.50;;;1.38;;
9409;SDS011;4744;52.576;13.568;2022-10-12T13:21:41;2.97;;;1.70;;
9409;SDS011;4744;52.576;13.568;2022-10-12T13:24:13;4.10;;;1.80;;
9409;SDS011;4744;52.576;13.568;2022-10-12T13:26:44;3.83;;;1.50;;
9409;SDS011;4744;52.576;13.568;2022-10-12T13:29:15;3.40;;;1.55;;
9409;SDS011;4744;52.576;13.568;2022-10-12T13:31:46;4.93;;;1.63;;
9409;SDS011;4744;52.576;13.568;2022-10-12T13:34:16;5.00;;;1.63;;
9409;SDS011;4744;52.576;13.568;2022-10-12T13:36:48;9.07;;;1.70;;
9409;SDS011;4744;52.576;13.568;2022-10-12T13:39:20;1.73;;;1.20;;
9409;SDS011;4744;52.576;13.568;2022-10-12T13:41:49;4.47;;;1.50;;
9409;SDS011;4744;52.576;13.568;2022-10-12T13:44:19;5.22;;;1.88;;
9409;SDS011;4744;52.576;13.568;2022-10-12T13:46:48;4.45;;;1.67;;
9409;SDS011;4744;52.576;13.568;2022-10-12T13:49:16;2.33;;;1.58;;
9409;SDS011;4744;52.576;13.568;2022-10-12T13:51:45;5.70;;;1.83;;
9409;SDS011;4744;52.576;13.568;2022-10-12T13:54:15;2.83;;;1.50;;
9409;SDS011;4744;52.576;13.568;2022-10-12T13:56:43;4.07;;;1.60;;
9409;SDS011;4744;52.576;13.568;2022-10-12T13:59:14;3.30;;;1.40;;
9409;SDS011;4744;52.576;13.568;2022-10-12T14:01:47;2.90;;;1.50;;
9409;SDS011;4744;52.576;13.568;2022-10-12T14:04:19;3.25;;;1.60;;
9409;SDS011;4744;52.576;13.568;2022-10-12T14:06:47;4.43;;;1.52;;
9409;SDS011;4744;52.576;13.568;2022-10-12T14:09:20;3.33;;;1.50;;
9409;SDS011;4744;52.576;13.568;2022-10-12T14:11:50;7.13;;;1.77;;
9409;SDS011;4744;52.576;13.568;2022-10-12T14:14:23;2.38;;;1.27;;
9409;SDS011;4744;52.576;13.568;2022-10-12T14:16:56;5.20;;;1.83;;
9409;SDS011;4744;52.576;13.568;2022-10-12T14:19:34;4.90;;;1.63;;
9409;SDS011;4744;52.576;13.568;2022-10-12T14:22:08;2.65;;;1.20;;
9409;SDS011;4744;52.576;13.568;2022-10-12T14:24:36;3.22;;;1.75;;
9409;SDS011;4744;52.576;13.568;2022-10-12T14:27:04;3.33;;;1.30;;
9409;SDS011;4744;52.576;13.568;2022-10-12T14:29:34;4.22;;;1.55;;
9409;SDS011;4744;52.576;13.568;2022-10-12T14:32:05;5.95;;;1.90;;
9409;SDS011;4744;52.576;13.568;2022-10-12T14:35:02;3.83;;;1.52;;
9409;SDS011;4744;52.576;13.568;2022-10-12T14:37:35;2.55;;;1.35;;
9409;SDS011;4744;52.576;13.568;2022-10-12T14:42:53;4.00;;;1.42;;
9409;SDS011;4744;52.576;13.568;2022-10-12T14:45:25;3.47;;;1.50;;
9409;SDS011;4744;52.576;13.568;2022-10-12T14:47:52;3.13;;;1.50;;
9409;SDS011;4744;52.576;13.568;2022-10-12T14:50:19;6.25;;;1.98;;
9409;SDS011;4744;52.576;13.568;2022-10-12T14:52:48;3.83;;;1.40;;
9409;SDS011;4744;52.576;13.568;2022-10-12T14:55:17;5.45;;;1.77;;
9409;SDS011;4744;52.576;13.568;2022-10-12T14:57:46;3.50;;;1.48;;
9409;SDS011;4744;52.576;13.568;2022-10-12T15:00:14;3.88;;;1.55;;
9409;SDS011;4744;52.576;13.568;2022-10-12T15:02:43;4.10;;;2.08;;
9409;SDS011;4744;52.576;13.568;2022-10-12T15:05:11;4.05;;;1.63;;
9409;SDS011;4744;52.576;13.568;2022-10-12T15:07:39;3.58;;;1.80;;
9409;SDS011;4744;52.576;13.568;2022-10-12T15:10:07;5.53;;;2.40;;
9409;SDS011;4744;52.576;13.568;2022-10-12T15:12:34;4.13;;;1.55;;
9409;SDS011;4744;52.576;13.568;2022-10-12T15:15:16;2.80;;;1.52;;
9409;SDS011;4744;52.576;13.568;2022-10-12T15:17:57;3.70;;;1.80;;
9409;SDS011;4744;52.576;13.568;2022-10-12T15:20:24;4.78;;;1.80;;
9409;SDS011;4744;52.576;13.568;2022-10-12T15:22:52;2.42;;;1.60;;
9409;SDS011;4744;52.576;13.568;2022-10-12T15:25:19;3.13;;;1.50;;
9409;SDS011;4744;52.576;13.568;2022-10-12T15:27:48;3.92;;;1.67;;
9409;SDS011;4744;52.576;13.568;2022-10-12T15:30:15;5.43;;;3.60;;
9409;SDS011;4744;52.576;13.568;2022-10-12T15:32:42;5.60;;;2.10;;
9409;SDS011;4744;52.576;13.568;2022-10-12T15:35:19;5.00;;;1.70;;
9409;SDS011;4744;52.576;13.568;2022-10-12T15:37:47;4.55;;;2.28;;